Aeroporto :
LOGIN :

Iscrizione | Disclaimer

   EN    FR    IT 

 










Sommario :    VFR   VFR Marginale   IFR   IFR Intensivo   IFR Molto Intensivo
Visibilità : 
Base nubi : 
>= 8 km
>= 3000ft
5 / 8 km
1000 / 3000 ft
1500m / 5 km
500 / 1000 ft
800 / 1500m
200 / 500 ft
< 800m
< 200 ft
Simboli :   Temporali  Nebbia  Neve Forte  Precipitazioni Forti  Vento > 20 kt
SIGMETs :   Varie  Temporali  Ghiacco  Turbolenza  Onda orograficha  Ceneri Vulcaniche






- Altitudine del aeroporto : 40 ft
- Codice IATA : RMI


LIPR - Federico Fellini Int. Rimini

ULTIMO METAR :
  • 192350Z AUTO 02006KT 9999 FEW044/// 10/05 Q1022

METARs OBSOLETI :
  • 192320Z AUTO 03010KT 9999 BKN042/// 10/06 Q1022
  • 192250Z AUTO 01010KT 330V030 9999 BKN036/// 11/07 Q1021
  • 192220Z AUTO 01008KT 9999 FEW031/// 09/06 Q1021
  • 192150Z 30008KT 230V350 8000 SCT020 SCT040 09/07 Q1021
  • 192120Z 21003KT 8000 FEW070 06/05 Q1020

TAF TAF LIPR
Valido dal 20 a 00 ore il 20 a 09 ore UTC


192300Z 2000/2009 VRB05KT 6000 SCT040
TEMPO 2000/2003 RA



MetMap, La meteo Aeronautica in un colpo d'occhio ! - Copyright ORBIFLY Dicembre 2007 - Disclaimer

ORBIFLY MET'MAP TEAM :

Programmazione e sviluppo : Alexandra Zaïnal
Concezione : Baudouin d'Aumeries
Aiuto per la programmazione : Marc-Olivier Méhu
Supporto tecnico e logistico : Manuel Goepfert
Aiuto per la traduzione : Arnaldo La Scala

Contatto : metmap@orbifly.com




FONTI E CREDITI :

   NOAA